createdAt,value
2022-09-12T00:00:37.041Z,100123.67
2022-09-12T00:01:41.642Z,100118.75
2022-09-12T00:02:46.235Z,100131.97
2022-09-12T00:03:56.187Z,100125.37
2022-09-12T00:05:00.900Z,100122.37
2022-09-12T00:06:22.368Z,100119.38
2022-09-12T00:07:22.747Z,100126.51
2022-09-12T00:08:25.700Z,100119.92
2022-09-12T00:09:28.731Z,100119.92
2022-09-12T00:10:32.303Z,100121.59
2022-09-12T00:11:37.031Z,100119.67
2022-09-12T00:12:39.894Z,100112.25
2022-09-12T00:13:43.218Z,100120.25
2022-09-12T00:14:46.045Z,100120.25
2022-09-12T00:15:48.966Z,100124.92
2022-09-12T00:16:52.135Z,100111.17
2022-09-12T00:17:55.025Z,100111.17
2022-09-12T00:18:57.935Z,100112.80
2022-09-12T00:20:00.885Z,100110.88
2022-09-12T00:21:04.744Z,100109.80
2022-09-12T00:22:07.713Z,100115.88
2022-09-12T00:23:11.534Z,100113.96
2022-09-12T00:24:14.466Z,100110.12
2022-09-12T00:25:17.452Z,100112.05
2022-09-12T00:26:21.596Z,100109.01
2022-09-12T00:27:24.744Z,100109.01
2022-09-12T00:28:27.693Z,100110.92
2022-09-12T00:29:30.610Z,100110.67
2022-09-12T00:30:33.907Z,100109.84
2022-09-12T00:31:36.938Z,100104.92
2022-09-12T00:32:40.131Z,100107.67
2022-09-12T00:33:43.151Z,100103.83
2022-09-12T00:34:46.079Z,100111.80
2022-09-12T00:35:52.397Z,100112.38
2022-09-12T00:36:55.645Z,100112.38
2022-09-12T00:37:58.482Z,100114.04
2022-09-12T00:39:01.487Z,100104.13
2022-09-12T00:40:05.012Z,100107.70
2022-09-12T00:41:14.420Z,100108.54
2022-09-12T00:42:17.363Z,100103.04
2022-09-12T00:43:35.310Z,100109.09
2022-09-12T00:44:43.952Z,100100.84
2022-09-12T00:45:46.958Z,100103.59
2022-09-12T00:46:53.377Z,100104.42
2022-09-12T00:47:59.770Z,100102.78
2022-09-12T00:49:24.307Z,100098.92
2022-09-12T00:50:28.169Z,100097.00
2022-09-12T00:51:34.108Z,100099.75
2022-09-12T00:52:46.408Z,100099.75
2022-09-12T00:53:52.201Z,100095.08
2022-09-12T00:55:04.394Z,100097.83
2022-09-12T00:56:07.678Z,100095.08
2022-09-12T00:57:14.075Z,100095.08
2022-09-12T00:58:20.465Z,100093.16
2022-09-12T00:59:32.940Z,100099.49
2022-09-12T01:00:35.957Z,100097.00
2022-09-12T01:01:41.169Z,100098.66
2022-09-12T01:02:47.131Z,100101.41
2022-09-12T01:03:49.995Z,100095.08
2022-09-12T01:04:53.225Z,100095.91
2022-09-12T01:06:05.331Z,100093.16
2022-09-12T01:07:08.461Z,100098.66
2022-09-12T01:08:11.661Z,100098.66
2022-09-12T01:09:17.942Z,100100.33
2022-09-12T01:10:21.878Z,100092.08
2022-09-12T01:11:25.264Z,100096.75
2022-09-12T01:12:28.923Z,100095.91
2022-09-12T01:13:33.938Z,100091.50
2022-09-12T01:14:37.893Z,100092.58
2022-09-12T01:15:40.931Z,100092.58
2022-09-12T01:16:45.450Z,100092.58
2022-09-12T01:18:07.194Z,100090.95
2022-09-12T01:19:45.878Z,100095.33
2022-09-12T01:21:07.229Z,100098.08
2022-09-12T01:22:16.656Z,100093.95
2022-09-12T01:23:28.040Z,100098.63
2022-09-12T01:24:40.156Z,100090.63
2022-09-12T01:26:09.099Z,100096.12
2022-09-12T01:27:18.264Z,100095.30
2022-09-12T01:28:36.399Z,100094.47
2022-09-12T01:30:04.173Z,100089.25
2022-09-12T01:31:10.580Z,100086.50
2022-09-12T01:32:17.016Z,100086.50
2022-09-12T01:33:26.256Z,100094.75
2022-09-12T01:34:45.008Z,100082.09
2022-09-12T01:36:10.908Z,100086.50
2022-09-12T01:37:26.067Z,100082.92
2022-09-12T01:38:39.107Z,100082.92
2022-09-12T01:40:03.674Z,100075.50
2022-09-12T01:41:12.913Z,100074.67
2022-09-12T01:42:28.416Z,100080.17
2022-09-12T01:43:41.370Z,100085.67
2022-09-12T01:44:54.289Z,100084.00
2022-09-12T01:46:09.089Z,100079.34
2022-09-12T01:47:27.905Z,100079.34
2022-09-12T01:48:49.700Z,100071.34
2022-09-12T01:49:59.038Z,100082.34
2022-09-12T01:51:14.484Z,100076.84
2022-09-12T01:52:31.190Z,100077.67
2022-09-12T01:53:43.681Z,100074.09
2022-09-12T01:54:52.840Z,100082.34
2022-09-12T01:55:59.223Z,100071.63
2022-09-12T01:57:05.812Z,100070.80
2022-09-12T01:58:28.599Z,100074.37
2022-09-12T01:59:37.842Z,100075.17
2022-09-12T02:00:47.690Z,100074.37
2022-09-12T02:01:55.014Z,100072.71
2022-09-12T02:03:10.498Z,100076.30
2022-09-12T02:04:25.862Z,100073.55
2022-09-12T02:05:35.259Z,100081.80
2022-09-12T02:06:53.450Z,100071.88
2022-09-12T02:08:14.791Z,100076.30
2022-09-12T02:09:21.348Z,100072.71
2022-09-12T02:10:32.830Z,100074.63
2022-09-12T02:11:39.499Z,100078.47
2022-09-12T02:12:45.890Z,100080.38
2022-09-12T02:13:55.401Z,100082.30
2022-09-12T02:15:02.093Z,100079.55
2022-09-12T02:16:11.635Z,100073.22
2022-09-12T02:17:18.066Z,100072.13
2022-09-12T02:18:21.334Z,100074.88
2022-09-12T02:19:30.437Z,100077.63
2022-09-12T02:20:54.375Z,100073.22
2022-09-12T02:21:53.598Z,100075.97
2022-09-12T02:22:57.738Z,100070.75
2022-09-12T02:24:04.336Z,100077.05
2022-09-12T02:25:10.949Z,100075.42
2022-09-12T02:26:19.211Z,100076.51
2022-09-12T02:27:25.650Z,100082.27
2022-09-12T02:28:38.000Z,100073.18
2022-09-12T02:29:42.165Z,100074.84
2022-09-12T02:31:07.853Z,100071.52
2022-09-12T02:32:47.826Z,100074.27
2022-09-12T02:34:15.442Z,100064.38
2022-09-12T02:35:38.388Z,100072.05
2022-09-12T02:36:50.737Z,100058.81
2022-09-12T02:38:15.460Z,100072.84
2022-09-12T02:39:20.422Z,100072.02
2022-09-12T02:40:25.035Z,100067.86
2022-09-12T02:41:28.368Z,100065.39
2022-09-12T02:42:31.165Z,100070.89
2022-09-12T02:43:34.180Z,100071.97
2022-09-12T02:44:37.073Z,100065.64
2022-09-12T02:45:40.193Z,100073.89
2022-09-12T02:46:46.550Z,100074.14
2022-09-12T02:47:58.636Z,100075.80
2022-09-12T02:49:02.452Z,100074.97
2022-09-12T02:50:07.652Z,100079.64
2022-09-12T02:51:11.369Z,100076.06
2022-09-12T02:52:15.108Z,100081.56
2022-09-12T02:53:18.530Z,100078.81
2022-09-12T02:54:21.543Z,100085.39
2022-09-12T02:55:24.462Z,100077.97
2022-09-12T02:56:29.554Z,100072.48
2022-09-12T02:57:32.776Z,100076.89
2022-09-12T02:58:36.059Z,100088.14
2022-09-12T02:59:38.962Z,100086.50
2022-09-12T03:00:56.887Z,100088.14
2022-09-12T03:02:24.376Z,100081.26
2022-09-12T03:03:56.537Z,100083.17
2022-09-12T03:05:15.295Z,100082.34
2022-09-12T03:06:41.574Z,100086.42
2022-09-12T03:07:48.049Z,100082.05
2022-09-12T03:09:00.874Z,100078.47
2022-09-12T03:10:25.544Z,100078.47
2022-09-12T03:11:37.683Z,100078.47
2022-09-12T03:13:06.870Z,100086.71
2022-09-12T03:14:28.391Z,100077.63
2022-09-12T03:15:40.886Z,100075.97
2022-09-12T03:17:14.707Z,100089.97
2022-09-12T03:18:21.393Z,100079.25
2022-09-12T03:19:31.041Z,100077.59
2022-09-12T03:20:37.730Z,100073.17
2022-09-12T03:21:52.981Z,100072.34
2022-09-12T03:23:08.184Z,100081.42
2022-09-12T03:24:37.501Z,100071.52
2022-09-12T03:25:44.011Z,100084.17
2022-09-12T03:26:59.608Z,100086.09
2022-09-12T03:28:11.548Z,100077.00
2022-09-12T03:29:14.972Z,100078.67
2022-09-12T03:30:18.220Z,100079.50
2022-09-12T03:31:21.927Z,100086.66
2022-09-12T03:32:46.326Z,100083.91
2022-09-12T03:33:49.196Z,100085.00
2022-09-12T03:34:52.263Z,100076.75
2022-09-12T03:35:55.775Z,100077.84
2022-09-12T03:36:58.900Z,100083.34
2022-09-12T03:38:01.714Z,100079.50
2022-09-12T03:39:04.634Z,100082.25
2022-09-12T03:40:09.481Z,100083.91
2022-09-12T03:41:12.769Z,100085.55
2022-09-12T03:42:15.680Z,100081.72
2022-09-12T03:43:18.885Z,100085.05
2022-09-12T03:44:22.113Z,100085.88
2022-09-12T03:45:25.054Z,100086.17
2022-09-12T03:46:28.383Z,100077.09
2022-09-12T03:47:31.478Z,100081.26
2022-09-12T03:48:34.300Z,100070.81
2022-09-12T03:49:37.227Z,100076.89
2022-09-12T03:50:40.143Z,100078.30
2022-09-12T03:51:43.378Z,100076.39
2022-09-12T03:52:46.218Z,100075.02
2022-09-12T03:53:49.062Z,100078.34
2022-09-12T03:54:51.941Z,100078.89
2022-09-12T03:55:54.810Z,100070.39
2022-09-12T03:56:57.815Z,100076.47
2022-09-12T03:58:00.646Z,100074.02
2022-09-12T03:59:07.004Z,100075.42
2022-09-12T04:00:10.990Z,100072.13
2022-09-12T04:01:18.908Z,100076.30
2022-09-12T04:02:21.856Z,100079.34
2022-09-12T04:03:24.922Z,100082.38
2022-09-12T04:04:28.021Z,100077.45
2022-09-12T04:05:30.957Z,100076.91
2022-09-12T04:06:34.217Z,100071.16
2022-09-12T04:07:37.033Z,100078.06
2022-09-12T04:08:40.398Z,100076.69
2022-09-12T04:09:43.602Z,100077.52
2022-09-12T04:10:47.009Z,100079.19
2022-09-12T04:11:50.049Z,100070.68
2022-09-12T04:12:52.881Z,100078.94
2022-09-12T04:13:55.952Z,100071.52
2022-09-12T04:14:58.768Z,100071.52
2022-09-12T04:16:02.104Z,100075.06
2022-09-12T04:17:05.046Z,100078.65
2022-09-12T04:18:08.024Z,100073.97
2022-09-12T04:19:11.750Z,100078.39
2022-09-12T04:20:16.544Z,100083.64
2022-09-12T04:21:23.637Z,100079.51
2022-09-12T04:22:26.569Z,100074.58
2022-09-12T04:23:29.369Z,100073.24
2022-09-12T04:24:32.197Z,100074.87
2022-09-12T04:25:35.096Z,100077.36
2022-09-12T04:26:38.304Z,100072.44
2022-09-12T04:27:41.106Z,100077.66
2022-09-12T04:28:44.150Z,100074.64
2022-09-12T04:29:47.020Z,100077.97
2022-09-12T04:30:50.684Z,100078.52
2022-09-12T04:31:53.543Z,100078.25
2022-09-12T04:32:56.343Z,100083.25
2022-09-12T04:34:00.669Z,100080.20
2022-09-12T04:35:04.265Z,100081.61
2022-09-12T04:36:10.679Z,100084.14
2022-09-12T04:37:13.808Z,100083.84
2022-09-12T04:38:16.828Z,100084.69
2022-09-12T04:39:19.624Z,100083.59
2022-09-12T04:40:22.585Z,100091.30
2022-09-12T04:41:28.188Z,100089.13
2022-09-12T04:42:31.012Z,100088.29
2022-09-12T04:43:34.125Z,100096.30
2022-09-12T04:44:37.389Z,100086.38
2022-09-12T04:45:40.492Z,100084.45
2022-09-12T04:46:46.481Z,100088.03
2022-09-12T04:47:49.355Z,100083.10
2022-09-12T04:48:56.591Z,100089.70
2022-09-12T04:49:57.181Z,100086.11
2022-09-12T04:51:11.712Z,100086.95
2022-09-12T04:52:14.595Z,100081.44
2022-09-12T04:53:17.500Z,100088.61
2022-09-12T04:54:20.524Z,100091.36
2022-09-12T04:55:24.919Z,100090.53
2022-09-12T04:56:29.442Z,100088.61
2022-09-12T04:57:32.261Z,100092.99
2022-09-12T04:58:35.971Z,100090.23
2022-09-12T04:59:39.335Z,100083.90
2022-09-12T05:00:43.035Z,100084.73
2022-09-12T05:01:45.846Z,100074.55
2022-09-12T05:02:48.678Z,100083.64
2022-09-12T05:03:51.573Z,100071.80
2022-09-12T05:04:54.391Z,100071.80
2022-09-12T05:05:57.315Z,100076.22
2022-09-12T05:07:00.131Z,100073.46
2022-09-12T05:08:03.017Z,100075.13
2022-09-12T05:09:08.144Z,100075.95
2022-09-12T05:10:12.114Z,100070.99
2022-09-12T05:11:22.717Z,100071.82
2022-09-12T05:12:23.162Z,100073.48
2022-09-12T05:13:26.579Z,100072.14
2022-09-12T05:14:30.360Z,100066.89
2022-09-12T05:15:33.795Z,100075.15
2022-09-12T05:16:36.895Z,100079.83
2022-09-12T05:17:39.855Z,100072.66
2022-09-12T05:18:44.085Z,100076.23
2022-09-12T05:19:47.783Z,100075.41
2022-09-12T05:20:50.621Z,100067.98
2022-09-12T05:21:53.455Z,100074.31
2022-09-12T05:22:56.374Z,100082.31
2022-09-12T05:23:59.597Z,100080.11
2022-09-12T05:25:02.462Z,100084.27
2022-09-12T05:26:06.464Z,100081.25
2022-09-12T05:27:09.544Z,100083.71
2022-09-12T05:28:12.444Z,100083.20
2022-09-12T05:29:15.263Z,100082.10
2022-09-12T05:30:19.420Z,100078.80
2022-09-12T05:31:25.213Z,100073.86
2022-09-12T05:32:31.906Z,100076.89
2022-09-12T05:33:36.061Z,100081.05
2022-09-12T05:34:39.933Z,100074.16
2022-09-12T05:35:46.345Z,100077.22
2022-09-12T05:36:49.511Z,100076.67
2022-09-12T05:37:52.433Z,100073.36
2022-09-12T05:38:56.282Z,100073.92
2022-09-12T05:39:59.358Z,100074.50
2022-09-12T05:41:07.918Z,100078.91
2022-09-12T05:42:11.595Z,100086.62
2022-09-12T05:43:14.419Z,100077.27
2022-09-12T05:44:17.386Z,100078.63
2022-09-12T05:45:20.628Z,100077.28
2022-09-12T05:46:26.690Z,100078.65
2022-09-12T05:47:29.600Z,100085.56
2022-09-12T05:48:32.433Z,100084.47
2022-09-12T05:49:35.649Z,100077.03
2022-09-12T05:50:38.768Z,100088.88
2022-09-12T05:51:44.367Z,100086.95
2022-09-12T05:52:47.199Z,100095.48
2022-09-12T05:53:52.995Z,100094.39
2022-09-12T05:54:55.930Z,100089.14
2022-09-12T05:56:05.080Z,100084.73
2022-09-12T05:57:08.017Z,100092.16
2022-09-12T05:58:10.834Z,100094.09
2022-09-12T05:59:16.935Z,100086.65
2022-09-12T06:00:21.131Z,100082.80
2022-09-12T06:01:25.227Z,100082.54
2022-09-12T06:02:28.267Z,100080.61
2022-09-12T06:03:31.141Z,100079.22
2022-09-12T06:04:33.967Z,100076.20
2022-09-12T06:05:36.776Z,100075.65
2022-09-12T06:06:42.922Z,100073.45
2022-09-12T06:07:46.656Z,100082.30
2022-09-12T06:08:52.186Z,100078.41
2022-09-12T06:09:55.054Z,100078.98
2022-09-12T06:11:02.528Z,100076.80
2022-09-12T06:12:07.033Z,100072.64
2022-09-12T06:13:09.899Z,100075.97
2022-09-12T06:14:14.956Z,100072.95
2022-09-12T06:15:17.798Z,100066.30
2022-09-12T06:16:24.133Z,100073.25
2022-09-12T06:17:27.140Z,100076.57
2022-09-12T06:18:29.950Z,100069.66
2022-09-12T06:19:33.068Z,100068.30
2022-09-12T06:20:36.400Z,100078.77
2022-09-12T06:21:39.519Z,100071.89
2022-09-12T06:22:42.330Z,100076.28
2022-09-12T06:23:46.509Z,100078.78
2022-09-12T06:24:49.358Z,100073.83
2022-09-12T06:25:52.395Z,100080.17
2022-09-12T06:26:55.591Z,100069.97
2022-09-12T06:27:58.509Z,100069.67
2022-09-12T06:29:02.428Z,100076.02
2022-09-12T06:30:06.450Z,100071.33
2022-09-12T06:31:14.753Z,100072.73
2022-09-12T06:32:17.789Z,100079.61
2022-09-12T06:33:20.646Z,100082.67
2022-09-12T06:34:23.541Z,100075.75
2022-09-12T06:35:26.422Z,100084.33
2022-09-12T06:36:37.489Z,100079.08
2022-09-12T06:37:41.183Z,100076.88
2022-09-12T06:38:45.791Z,100083.76
2022-09-12T06:39:48.933Z,100082.39
2022-09-12T06:40:52.272Z,100077.41
2022-09-12T06:41:55.135Z,100077.97
2022-09-12T06:42:59.922Z,100075.77
2022-09-12T06:44:04.911Z,100076.03
2022-09-12T06:45:08.766Z,100076.86
2022-09-12T06:46:12.706Z,100081.81
2022-09-12T06:47:15.800Z,100080.45
2022-09-12T06:48:19.533Z,100076.29
2022-09-12T06:49:22.568Z,100079.61
2022-09-12T06:50:27.515Z,100073.82
2022-09-12T06:51:30.352Z,100080.70
2022-09-12T06:52:33.181Z,100075.74
2022-09-12T06:53:38.825Z,100075.17
2022-09-12T06:54:41.786Z,100080.16
2022-09-12T06:55:44.611Z,100083.17
2022-09-12T06:56:48.131Z,100069.93
2022-09-12T06:57:51.673Z,100077.64
2022-09-12T06:58:58.732Z,100079.03
2022-09-12T07:00:05.020Z,100085.08
2022-09-12T07:01:10.994Z,100085.67
2022-09-12T07:02:14.734Z,100088.43
2022-09-12T07:03:18.259Z,100090.09
2022-09-12T07:04:21.522Z,100090.09
2022-09-12T07:05:24.381Z,100088.16
2022-09-12T07:06:33.543Z,100097.28
2022-09-12T07:07:36.529Z,100094.52
2022-09-12T07:08:40.364Z,100084.57
2022-09-12T07:09:44.114Z,100094.52
2022-09-12T07:10:47.059Z,100092.58
2022-09-12T07:11:49.879Z,100098.91
2022-09-12T07:12:52.810Z,100093.38
2022-09-12T07:13:57.661Z,100096.97
2022-09-12T07:15:00.637Z,100094.21
2022-09-12T07:16:04.948Z,100091.75
2022-09-12T07:17:08.259Z,100096.45
2022-09-12T07:18:11.167Z,100098.37
2022-09-12T07:19:14.137Z,100101.41
2022-09-12T07:20:18.102Z,100101.64
2022-09-12T07:21:21.319Z,100099.19
2022-09-12T07:22:24.138Z,100106.64
2022-09-12T07:23:27.161Z,100103.31
2022-09-12T07:24:29.974Z,100105.52
2022-09-12T07:25:32.912Z,100099.47
2022-09-12T07:26:36.323Z,100095.05
2022-09-12T07:27:39.260Z,100091.73
2022-09-12T07:28:42.727Z,100096.72
2022-09-12T07:29:46.753Z,100088.70
2022-09-12T07:30:50.003Z,100100.84
2022-09-12T07:31:53.415Z,100093.96
2022-09-12T07:32:56.243Z,100087.88
2022-09-12T07:33:59.179Z,100088.98
2022-09-12T07:35:02.663Z,100093.14
2022-09-12T07:36:10.584Z,100090.65
2022-09-12T07:37:13.416Z,100090.09
2022-09-12T07:38:16.720Z,100098.94
2022-09-12T07:39:19.658Z,100085.41
2022-09-12T07:40:23.781Z,100086.50
2022-09-12T07:41:28.343Z,100084.84
2022-09-12T07:42:31.734Z,100087.08
2022-09-12T07:43:34.590Z,100090.10
2022-09-12T07:44:37.557Z,100087.61
2022-09-12T07:45:41.791Z,100084.05
2022-09-12T07:46:44.924Z,100085.15
2022-09-12T07:47:47.754Z,100084.31
2022-09-12T07:48:54.826Z,100083.48
2022-09-12T07:49:58.017Z,100092.03
2022-09-12T07:51:03.457Z,100093.12
2022-09-12T07:52:06.313Z,100087.91
2022-09-12T07:53:09.244Z,100087.91
2022-09-12T07:54:12.049Z,100095.36
2022-09-12T07:55:14.885Z,100090.11
2022-09-12T07:56:20.718Z,100086.52
2022-09-12T07:57:24.446Z,100079.34
2022-09-12T07:58:27.330Z,100085.16
2022-09-12T07:59:51.565Z,100078.81
2022-09-12T08:00:36.881Z,100080.73
2022-09-12T08:01:40.963Z,100074.39
2022-09-12T08:02:44.249Z,100069.97
2022-09-12T08:03:49.321Z,100077.41
2022-09-12T08:04:52.865Z,100073.83
2022-09-12T08:06:04.271Z,100074.92
2022-09-12T08:07:07.415Z,100082.36
2022-09-12T08:08:10.472Z,100076.31
2022-09-12T08:09:14.888Z,100074.66
2022-09-12T08:10:18.055Z,100086.78
2022-09-12T08:11:22.322Z,100082.37
2022-09-12T08:12:25.579Z,100079.61
2022-09-12T08:13:29.324Z,100088.18
2022-09-12T08:14:32.266Z,100085.42
2022-09-12T08:15:35.680Z,100086.25
2022-09-12T08:16:38.646Z,100087.35
2022-09-12T08:17:44.278Z,100089.28
2022-09-12T08:18:47.722Z,100076.31
2022-09-12T08:19:50.898Z,100082.67
2022-09-12T08:21:01.521Z,100081.84
2022-09-12T08:22:04.842Z,100083.50
2022-09-12T08:23:07.711Z,100072.73
2022-09-12T08:24:11.733Z,100072.73
2022-09-12T08:25:14.740Z,100073.56
2022-09-12T08:26:17.858Z,100064.72
2022-09-12T08:27:20.703Z,100057.00
2022-09-12T08:28:24.920Z,100049.29
2022-09-12T08:29:28.104Z,100045.96
2022-09-12T08:30:31.150Z,100046.23
2022-09-12T08:32:46.709Z,100058.36
2022-09-12T08:33:49.772Z,100056.71
2022-09-12T08:34:52.596Z,100063.32
2022-09-12T08:35:59.054Z,100064.41
2022-09-12T08:37:02.365Z,100062.77
2022-09-12T08:38:05.559Z,100060.83
2022-09-12T08:39:08.499Z,100065.51
2022-09-12T08:40:18.214Z,100061.08
2022-09-12T08:41:34.492Z,100065.52
2022-09-12T08:42:47.728Z,100067.43
2022-09-12T08:44:11.051Z,100071.00
2022-09-12T08:45:17.454Z,100077.34
2022-09-12T08:46:25.509Z,100074.03
2022-09-12T08:47:35.123Z,100070.97
2022-09-12T08:48:38.495Z,100075.66
2022-09-12T08:49:57.024Z,100065.45
2022-09-12T08:51:00.877Z,100070.44
2022-09-12T08:52:07.293Z,100075.14
2022-09-12T08:54:44.982Z,100072.91
2022-09-12T08:55:54.539Z,100076.26
2022-09-12T08:57:05.191Z,100074.59
2022-09-12T08:58:20.321Z,100068.55
2022-09-12T08:59:23.601Z,100078.77
2022-09-12T09:00:39.950Z,100073.78
2022-09-12T09:01:44.994Z,100078.47
2022-09-12T09:03:08.366Z,100071.59
2022-09-12T09:04:32.956Z,100072.70
2022-09-12T09:05:57.189Z,100068.52
2022-09-12T09:07:18.883Z,100071.58
2022-09-12T09:08:40.053Z,100060.80
2022-09-12T09:10:06.499Z,100061.08
2022-09-12T09:11:16.060Z,100072.12
2022-09-12T09:12:28.195Z,100066.59
2022-09-12T09:14:23.529Z,100065.50
2022-09-12T09:15:48.970Z,100060.53
2022-09-12T09:16:53.866Z,100057.23
2022-09-12T09:18:16.227Z,100056.96
2022-09-12T09:19:25.431Z,100063.01
2022-09-12T09:20:59.352Z,100066.05
2022-09-12T09:22:05.743Z,100072.41
2022-09-12T09:23:27.113Z,100064.66
2022-09-12T09:24:51.631Z,100064.66
2022-09-12T09:26:18.737Z,100063.55
2022-09-12T09:27:40.961Z,100066.31
2022-09-12T09:28:52.124Z,100067.97
2022-09-12T09:29:55.879Z,100061.62
2022-09-12T09:30:59.179Z,100064.37
2022-09-12T09:32:05.665Z,100063.28
2022-09-12T09:33:12.101Z,100063.28
2022-09-12T09:34:24.356Z,100054.99
2022-09-12T09:35:45.002Z,100059.11
2022-09-12T09:37:04.356Z,100051.66
2022-09-12T09:38:22.683Z,100058.56
2022-09-12T09:39:37.674Z,100053.57
2022-09-12T09:40:53.016Z,100051.36
2022-09-12T09:42:08.625Z,100056.34
2022-09-12T09:43:23.339Z,100046.65
2022-09-12T09:44:29.052Z,100042.52
2022-09-12T09:45:32.159Z,100051.32
2022-09-12T09:46:35.508Z,100047.45
2022-09-12T09:47:38.358Z,100046.08
2022-09-12T09:48:43.640Z,100040.25
2022-09-12T09:49:46.976Z,100042.73
2022-09-12T09:50:50.780Z,100043.56
2022-09-12T09:51:56.601Z,100036.66
2022-09-12T09:53:02.293Z,100043.81
2022-09-12T09:54:20.606Z,100049.06
2022-09-12T09:55:27.018Z,100049.63
2022-09-12T09:56:36.410Z,100042.44
2022-09-12T09:57:41.447Z,100045.75
2022-09-12T09:58:44.587Z,100040.23
2022-09-12T09:59:47.467Z,100050.14
2022-09-12T10:00:56.615Z,100040.75
2022-09-12T10:02:10.539Z,100041.30
2022-09-12T10:03:26.277Z,100043.48
2022-09-12T10:04:32.084Z,100050.13
2022-09-12T10:05:38.407Z,100049.55
2022-09-12T10:06:41.357Z,100058.08
2022-09-12T10:07:52.028Z,100055.87
2022-09-12T10:09:16.369Z,100064.16
2022-09-12T10:10:22.340Z,100049.52
2022-09-12T10:11:28.039Z,100047.33
2022-09-12T10:12:31.066Z,100050.37
2022-09-12T10:13:43.049Z,100038.48
2022-09-12T10:14:57.626Z,100043.46
2022-09-12T10:16:04.243Z,100045.39
2022-09-12T10:17:33.177Z,100043.77
2022-09-12T10:18:39.802Z,100047.64
2022-09-12T10:19:42.647Z,100042.38
2022-09-12T10:20:45.964Z,100048.74
2022-09-12T10:21:52.272Z,100045.98
2022-09-12T10:22:55.313Z,100051.50
2022-09-12T10:24:04.738Z,100044.05
2022-09-12T10:25:11.288Z,100044.05
2022-09-12T10:26:17.471Z,100047.91
2022-09-12T10:27:23.395Z,100052.33
2022-09-12T10:28:44.710Z,100053.44
2022-09-12T10:29:51.340Z,100045.15
2022-09-12T10:30:56.291Z,100044.31
2022-09-12T10:33:14.575Z,100044.56
2022-09-12T10:34:27.590Z,100043.24
2022-09-12T10:35:34.077Z,100052.64
2022-09-12T10:36:39.362Z,100054.84
2022-09-12T10:37:52.357Z,100044.92
2022-09-12T10:39:00.110Z,100053.22
2022-09-12T10:40:06.284Z,100050.73
2022-09-12T10:41:11.177Z,100041.88
2022-09-12T10:42:15.338Z,100050.48
2022-09-12T10:43:30.472Z,100050.75
2022-09-12T10:44:35.102Z,100048.27
2022-09-12T10:45:38.221Z,100051.30
2022-09-12T10:46:41.245Z,100044.42
2022-09-12T10:47:44.225Z,100042.77
2022-09-12T10:48:52.163Z,100043.03
2022-09-12T10:49:58.591Z,100044.14
2022-09-12T10:51:01.657Z,100038.92
2022-09-12T10:52:24.343Z,100038.36
2022-09-12T10:53:34.357Z,100054.11
2022-09-12T10:54:35.901Z,100049.43
2022-09-12T10:55:42.129Z,100043.08
2022-09-12T10:56:49.176Z,100041.72
2022-09-12T10:57:58.412Z,100045.86
2022-09-12T10:59:27.445Z,100046.13
2022-09-12T11:00:34.425Z,100050.30
2022-09-12T11:01:52.886Z,100055.27
2022-09-12T11:03:16.204Z,100056.67
2022-09-12T11:04:22.700Z,100046.73
2022-09-12T11:05:45.599Z,100048.09
2022-09-12T11:07:07.044Z,100049.20
2022-09-12T11:08:34.411Z,100055.03
2022-09-12T11:10:01.197Z,100048.67
2022-09-12T11:11:08.429Z,100038.14
2022-09-12T11:12:29.687Z,100038.45
2022-09-12T11:13:51.379Z,100036.78
2022-09-12T11:15:17.523Z,100034.57
2022-09-12T11:16:32.862Z,100031.81
2022-09-12T11:17:51.434Z,100032.94
2022-09-12T11:19:06.969Z,100038.73
2022-09-12T11:20:34.612Z,100034.58
2022-09-12T11:21:57.616Z,100031.30
2022-09-12T11:23:16.471Z,100035.16
2022-09-12T11:24:44.133Z,100031.01
2022-09-12T11:26:02.415Z,100026.06
2022-09-12T11:27:11.781Z,100017.22
2022-09-12T11:28:33.093Z,100023.84
2022-09-12T11:29:46.206Z,100013.10
2022-09-12T11:30:53.123Z,100009.52
2022-09-12T11:32:32.724Z,100015.03
2022-09-12T11:33:47.880Z,100008.69
2022-09-12T11:35:17.838Z,100014.20
2022-09-12T11:36:39.458Z,100016.97
2022-09-12T11:38:19.261Z,100019.72
2022-09-12T11:39:25.598Z,100016.13
2022-09-12T11:40:43.950Z,100015.30
2022-09-12T11:41:51.070Z,100024.41
2022-09-12T11:42:57.499Z,100018.62
2022-09-12T11:44:13.497Z,100024.14
2022-09-12T11:45:19.995Z,100017.49
2022-09-12T11:46:26.513Z,100019.71
2022-09-12T11:47:33.081Z,100018.87
2022-09-12T11:49:05.133Z,100010.31
2022-09-12T11:50:20.959Z,100017.75
2022-09-12T11:51:30.344Z,100027.95
2022-09-12T11:52:36.748Z,100031.27
2022-09-12T11:53:42.336Z,100025.47
2022-09-12T11:55:05.344Z,100024.10
2022-09-12T11:56:19.265Z,100023.55
2022-09-12T11:57:43.654Z,100023.25
2022-09-12T11:58:52.801Z,100019.39
2022-09-12T12:00:23.004Z,100030.98
2022-09-12T12:01:29.556Z,100016.36
2022-09-12T12:02:41.951Z,100016.08
2022-09-12T12:03:47.325Z,100016.08
2022-09-12T12:05:21.043Z,100016.36
2022-09-12T12:06:33.288Z,100021.88
2022-09-12T12:07:46.021Z,100017.73
2022-09-12T12:08:50.019Z,100012.51
2022-09-12T12:09:52.898Z,100014.44
2022-09-12T12:10:59.184Z,100009.19
2022-09-12T12:12:06.165Z,100002.02
2022-09-12T12:13:38.790Z,100006.70
2022-09-12T12:14:45.179Z,100005.02
2022-09-12T12:16:09.621Z,100001.73
2022-09-12T12:17:19.165Z,100003.93
2022-09-12T12:18:25.200Z,99995.92
2022-09-12T12:19:37.159Z,99993.47
2022-09-12T12:20:40.154Z,100000.08
2022-09-12T12:21:49.123Z,99998.42
2022-09-12T12:22:53.299Z,99995.11
2022-09-12T12:24:12.237Z,99985.20
2022-09-12T12:25:21.893Z,99984.37
2022-09-12T12:26:42.162Z,99991.82
2022-09-12T12:27:58.634Z,99998.44
2022-09-12T12:29:01.486Z,99991.27
2022-09-12T12:30:08.400Z,99990.70
2022-09-12T12:31:11.395Z,99994.59
2022-09-12T12:32:20.883Z,99991.01
2022-09-12T12:33:30.181Z,99992.11
2022-09-12T12:34:46.489Z,99989.91
2022-09-12T12:36:04.558Z,99988.25
2022-09-12T12:37:24.894Z,99988.25
2022-09-12T12:38:36.584Z,99986.02
2022-09-12T12:39:43.307Z,99991.53
2022-09-12T12:40:46.435Z,99992.36
2022-09-12T12:41:49.273Z,99991.53
2022-09-12T12:43:04.097Z,99989.61
2022-09-12T12:44:46.645Z,99998.72
2022-09-12T12:45:53.110Z,99994.02
2022-09-12T12:47:22.692Z,99995.13
2022-09-12T12:48:25.553Z,99987.67
2022-09-12T12:49:29.583Z,99986.02
2022-09-12T12:50:32.631Z,99987.67
2022-09-12T12:52:03.273Z,99985.74
2022-09-12T12:53:07.619Z,99988.23
2022-09-12T12:54:30.712Z,99992.65
2022-09-12T12:55:39.509Z,99993.75
2022-09-12T12:56:43.486Z,100001.20
2022-09-12T12:57:50.065Z,100002.58
2022-09-12T12:59:02.150Z,99998.72
2022-09-12T13:00:11.447Z,99997.05
2022-09-12T13:01:22.191Z,99988.77
2022-09-12T13:02:32.163Z,99984.08
2022-09-12T13:03:47.828Z,99985.74